DEDDW EDDM-ZZZZ

Flight info

Callsign DEDDW
Flight time N/A
Altitude
Route
Aircraft TB21

Departure

Time 2026-04-30 12:38
Airport Munich Airport (EDDM)

Arrival

Time N/A
Airport ZZZZ
Time Latitude Longitude Altitude Speed Heading
2026-04-30 12:29 48.35371 11.80369 1479 ft 0 kts 262°
2026-04-30 12:30 48.35368 11.80333 1479 ft 8 kts 276°
2026-04-30 12:30 48.35344 11.80237 1477 ft 13 kts 180°
2026-04-30 12:31 48.35248 11.80213 1473 ft 16 kts 181°
2026-04-30 12:31 48.35161 11.80155 1479 ft 18 kts 279°
2026-04-30 12:31 48.35097 11.79978 1472 ft 23 kts 249°
2026-04-30 12:31 48.35076 11.79730 1479 ft 24 kts 272°
2026-04-30 12:32 48.35012 11.79668 1479 ft 15 kts 175°
2026-04-30 12:32 48.34891 11.79689 1479 ft 20 kts 173°
2026-04-30 12:32 48.34823 11.79697 1473 ft 5 kts 182°
2026-04-30 12:32 48.34808 11.79698 1473 ft 0 kts 176°
2026-04-30 12:33 48.34800 11.79657 1477 ft 15 kts 264°
2026-04-30 12:33 48.34779 11.79427 1473 ft 25 kts 265°
2026-04-30 12:33 48.34759 11.79163 1479 ft 26 kts 262°
2026-04-30 12:33 48.34740 11.78886 1479 ft 27 kts 260°
2026-04-30 12:34 48.34718 11.78613 1477 ft 26 kts 264°
2026-04-30 12:34 48.34698 11.78337 1479 ft 28 kts 265°
2026-04-30 12:34 48.34673 11.78034 1479 ft 30 kts 262°
2026-04-30 12:34 48.34653 11.77750 1479 ft 26 kts 263°
2026-04-30 12:35 48.34631 11.77475 1479 ft 27 kts 265°
2026-04-30 12:35 48.34609 11.77193 1474 ft 28 kts 260°
2026-04-30 12:35 48.34592 11.76981 1473 ft 11 kts 255°
2026-04-30 12:35 48.34581 11.76833 1479 ft 19 kts 265°
2026-04-30 12:36 48.34524 11.76690 1479 ft 16 kts 148°
2026-04-30 12:36 48.34422 11.76739 1479 ft 15 kts 136°
2026-04-30 12:36 48.34376 11.76859 1475 ft 11 kts 118°
2026-04-30 12:36 48.34336 11.76991 1479 ft 19 kts 112°
2026-04-30 12:37 48.34282 11.77185 1477 ft 19 kts 114°
2026-04-30 12:37 48.34252 11.77467 1479 ft 48 kts 85°
2026-04-30 12:37 48.34306 11.78156 1532 ft 81 kts 82°
2026-04-30 12:37 48.34318 11.79010 1821 ft 85 kts 91°
2026-04-30 12:38 48.34278 11.79922 2068 ft 95 kts 91°
2026-04-30 12:38 48.33834 11.80737 2329 ft 115 kts 144°
2026-04-30 12:38 48.32994 11.80873 2542 ft 131 kts 174°
2026-04-30 12:38 48.32206 11.79982 2605 ft 163 kts 248°
2026-04-30 12:39 48.32073 11.78229 2602 ft 176 kts 268°
2026-04-30 12:39 48.32087 11.76415 2673 ft 164 kts 275°
2026-04-30 12:39 48.32170 11.74783 2427 ft 154 kts 277°
2026-04-30 12:39 48.32447 11.73349 2326 ft 130 kts 320°
2026-04-30 12:40 48.33168 11.72846 2074 ft 105 kts
2026-04-30 12:40 48.33713 11.73139 1935 ft 74 kts 53°
2026-04-30 12:40 48.33890 11.73789 1776 ft 67 kts 71°
2026-04-30 12:40 48.33994 11.74454 1676 ft 57 kts 75°
2026-04-30 12:41 48.34061 11.75072 1554 ft 62 kts 79°
2026-04-30 12:41 48.34107 11.75649 1476 ft 43 kts 79°
2026-04-30 12:41 48.34148 11.76137 1479 ft 63 kts 81°
2026-04-30 12:41 48.34206 11.76932 1553 ft 87 kts 82°
2026-04-30 12:42 48.34247 11.77840 1897 ft 84 kts 86°
2026-04-30 12:42 48.34280 11.78757 2168 ft 96 kts 86°
2026-04-30 12:42 48.34230 11.79716 2461 ft 103 kts 116°
2026-04-30 12:42 48.33483 11.80139 2522 ft 135 kts 177°
2026-04-30 12:43 48.32564 11.79982 2644 ft 133 kts 190°
2026-04-30 12:43 48.32030 11.78851 2540 ft 147 kts 270°
2026-04-30 12:43 48.31939 11.77318 2539 ft 148 kts 264°
2026-04-30 12:43 48.31851 11.75779 2442 ft 150 kts 268°
2026-04-30 12:44 48.31843 11.74227 2435 ft 146 kts 274°
2026-04-30 12:44 48.32168 11.72896 2342 ft 127 kts 333°
2026-04-30 12:44 48.32900 11.72646 2137 ft 101 kts 20°
2026-04-30 12:44 48.33542 11.72928 1887 ft 91 kts 37°
2026-04-30 12:45 48.33903 11.73662 1685 ft 90 kts 69°
2026-04-30 12:45 48.34006 11.74474 1608 ft 70 kts 78°
2026-04-30 12:45 48.34076 11.75220 1511 ft 72 kts 80°
2026-04-30 12:45 48.34132 11.75926 1507 ft 72 kts 83°
2026-04-30 12:46 48.34170 11.76693 1672 ft 74 kts 84°
2026-04-30 12:46 48.34163 11.77464 1893 ft 74 kts 91°
2026-04-30 12:46 48.33891 11.78095 2201 ft 76 kts 134°
2026-04-30 12:46 48.33456 11.78645 2311 ft 92 kts 128°
2026-04-30 12:47 48.32890 11.79271 2487 ft 110 kts 139°
2026-04-30 12:47 48.32229 11.79894 2731 ft 114 kts 140°
2026-04-30 12:47 48.31498 11.80508 2847 ft 132 kts 144°
2026-04-30 12:47 48.30662 11.81172 2862 ft 131 kts 144°
2026-04-30 12:48 48.29759 11.81139 2822 ft 142 kts 191°
2026-04-30 12:48 48.28820 11.80715 2740 ft 147 kts 188°
2026-04-30 12:48 48.27839 11.80258 2721 ft 148 kts 191°
2026-04-30 12:48 48.26849 11.80002 2739 ft 142 kts 168°
2026-04-30 12:49 48.25856 11.80152 2670 ft 145 kts 165°
2026-04-30 12:49 48.24877 11.80370 2684 ft 141 kts 164°
2026-04-30 12:49 48.23899 11.80524 2758 ft 140 kts 172°
2026-04-30 12:49 48.22935 11.80356 2830 ft 141 kts 182°
2026-04-30 12:50 48.21964 11.80108 2893 ft 143 kts 181°
2026-04-30 12:50 48.21014 11.80254 2915 ft 133 kts 139°
2026-04-30 12:50 48.20535 11.81324 2920 ft 127 kts 112°
2026-04-30 12:50 48.19903 11.82298 2914 ft 133 kts 130°
2026-04-30 12:51 48.19243 11.83229 3016 ft 126 kts 131°
2026-04-30 12:51 48.18596 11.84046 3186 ft 119 kts 134°
2026-04-30 12:51 48.17952 11.84790 3390 ft 117 kts 135°
2026-04-30 12:51 48.17273 11.85561 3415 ft 124 kts 135°
2026-04-30 12:52 48.16610 11.86308 3547 ft 121 kts 136°
2026-04-30 12:52 48.15876 11.87016 3615 ft 131 kts 142°
2026-04-30 12:52 48.15077 11.87728 3604 ft 136 kts 144°
2026-04-30 12:52 48.14246 11.88435 3509 ft 137 kts 140°
2026-04-30 12:53 48.13431 11.89196 3375 ft 141 kts 140°
2026-04-30 12:53 48.12595 11.90004 3233 ft 143 kts 141°
2026-04-30 12:53 48.11759 11.90766 3266 ft 135 kts 141°
2026-04-30 12:53 48.10980 11.91456 3466 ft 128 kts 140°
2026-04-30 12:54 48.10224 11.92168 3739 ft 129 kts 140°
2026-04-30 12:54 48.09468 11.92882 3998 ft 128 kts 140°
2026-04-30 12:54 48.08717 11.93586 4263 ft 127 kts 141°
2026-04-30 12:54 48.07957 11.94268 4574 ft 128 kts 142°
2026-04-30 12:55 48.07200 11.94946 4893 ft 128 kts 141°
2026-04-30 12:55 48.06437 11.95645 5111 ft 132 kts 144°
2026-04-30 12:55 48.05575 11.96199 5356 ft 136 kts 149°
2026-04-30 12:55 48.04717 11.96833 5652 ft 138 kts 146°
2026-04-30 12:56 48.03932 11.97627 6028 ft 136 kts 139°
2026-04-30 12:56 48.03162 11.98420 6302 ft 133 kts 139°
2026-04-30 12:56 48.02417 11.99215 6597 ft 132 kts 141°
2026-04-30 12:56 48.01671 12.00015 6927 ft 132 kts 137°
2026-04-30 12:57 48.00906 12.00789 7218 ft 134 kts 141°
2026-04-30 12:57 48.00118 12.01454 7471 ft 119 kts 142°
2026-04-30 12:57 47.99429 12.02082 7514 ft 116 kts 143°
2026-04-30 12:57 47.98706 12.02679 7503 ft 120 kts 143°
2026-04-30 12:58 47.98020 12.03376 7492 ft 119 kts 138°
2026-04-30 12:58 47.97313 12.04049 7511 ft 122 kts 144°
2026-04-30 12:58 47.96578 12.04652 7492 ft 117 kts 142°
2026-04-30 12:58 47.95910 12.05272 7499 ft 114 kts 141°
2026-04-30 12:59 47.95203 12.05985 7498 ft 137 kts 141°
2026-04-30 12:59 47.94318 12.06770 7522 ft 157 kts 146°
2026-04-30 12:59 47.93331 12.07593 7515 ft 167 kts 145°
2026-04-30 12:59 47.92320 12.08529 7532 ft 174 kts 145°
2026-04-30 13:00 47.91278 12.09486 7511 ft 177 kts 143°
2026-04-30 13:00 47.90240 12.10495 7517 ft 178 kts 142°
2026-04-30 13:00 47.89186 12.11491 7510 ft 180 kts 146°
2026-04-30 13:00 47.88073 12.12384 7520 ft 182 kts 146°
2026-04-30 13:01 47.87026 12.13399 7500 ft 176 kts 142°
2026-04-30 13:01 47.86016 12.14363 7482 ft 170 kts 144°
2026-04-30 13:01 47.85002 12.15221 7487 ft 165 kts 145°
2026-04-30 13:01 47.84029 12.16082 7454 ft 160 kts 144°
2026-04-30 13:02 47.83095 12.16964 7459 ft 157 kts 141°
2026-04-30 13:02 47.82173 12.17831 7456 ft 157 kts 144°
2026-04-30 13:02 47.81233 12.18649 7483 ft 157 kts 145°
2026-04-30 13:02 47.80286 12.19477 7485 ft 158 kts 144°
2026-04-30 13:03 47.79356 12.20355 7504 ft 159 kts 142°
2026-04-30 13:03 47.78424 12.21244 7491 ft 159 kts 145°
2026-04-30 13:03 47.77444 12.22065 7516 ft 162 kts 146°
2026-04-30 13:03 47.76482 12.22932 7498 ft 161 kts 146°
2026-04-30 13:04 47.75505 12.23829 6939 ft 168 kts 144°
2026-04-30 13:04 47.74558 12.24673 6728 ft 150 kts 146°
2026-04-30 13:04 47.73689 12.25477 6549 ft 145 kts 145°
2026-04-30 13:04 47.72868 12.26257 6266 ft 138 kts 144°
2026-04-30 13:05 47.72030 12.26997 6106 ft 139 kts 145°
2026-04-30 13:05 47.71200 12.27723 5863 ft 138 kts 144°
2026-04-30 13:05 47.70384 12.28467 5703 ft 135 kts 142°
2026-04-30 13:06 47.68701 12.29750 5494 ft 135 kts 150°
2026-04-30 13:06 47.67809 12.30297 5195 ft 142 kts 159°
2026-04-30 13:06 47.66840 12.30783 4778 ft 147 kts 141°
2026-04-30 13:06 47.66005 12.31647 4447 ft 143 kts 139°
2026-04-30 13:07 47.65183 12.32473 4336 ft 148 kts 143°
2026-04-30 13:07 47.64330 12.33201 4662 ft 132 kts 142°
2026-04-30 13:07 47.63547 12.33937 4813 ft 137 kts 140°
2026-04-30 13:07 47.62802 12.34877 4929 ft 142 kts 134°
2026-04-30 13:08 47.61999 12.35763 5057 ft 147 kts 147°
2026-04-30 13:08 47.61068 12.36430 5070 ft 147 kts 151°
2026-04-30 13:08 47.60202 12.37175 5034 ft 139 kts 140°
2026-04-30 13:08 47.59412 12.37958 4777 ft 137 kts 149°
2026-04-30 13:09 47.58547 12.38546 4389 ft 136 kts 149°
2026-04-30 13:09 47.57924 12.39490 3977 ft 134 kts 111°
2026-04-30 13:09 47.57592 12.40289 3704 ft 141 kts 129°
2026-04-30 13:09 47.56692 12.40873 3386 ft 145 kts 164°
2026-04-30 13:10 47.55891 12.41660 3185 ft 141 kts 120°
2026-04-30 13:10 47.55281 12.42761 3148 ft 135 kts 131°
2026-04-30 13:10 47.54618 12.43724 2915 ft 134 kts 135°
2026-04-30 13:10 47.53950 12.44678 3118 ft 129 kts 126°
2026-04-30 13:11 47.53675 12.45861 3253 ft 127 kts 74°
2026-04-30 13:11 47.54363 12.46357 3436 ft 150 kts 327°
2026-04-30 13:11 47.54405 12.44813 3626 ft 160 kts 233°
2026-04-30 13:11 47.53436 12.44432 3643 ft 156 kts 145°
2026-04-30 13:12 47.52990 12.45732 3569 ft 150 kts 98°
2026-04-30 13:12 47.52398 12.47078 3430 ft 153 kts 135°
2026-04-30 13:12 47.51453 12.47363 3155 ft 147 kts 191°
2026-04-30 13:13 47.51385 12.45077 2619 ft 141 kts 298°
2026-04-30 13:13 47.51905 12.43878 2621 ft 134 kts 311°
2026-04-30 13:13 47.53213 12.42080 2779 ft 126 kts
2026-04-30 13:14 47.53542 12.43080 2745 ft 141 kts 125°
2026-04-30 13:14 47.52729 12.43790 2516 ft 128 kts 142°
2026-04-30 13:14 47.51644 12.45566 2490 ft 114 kts 135°
2026-04-30 13:15 47.50910 12.45568 2795 ft 117 kts 225°
2026-04-30 13:15 47.51321 12.43347 2926 ft 148 kts 308°
2026-04-30 13:15 47.51947 12.42149 2851 ft 138 kts 314°
2026-04-30 13:16 47.52704 12.41775 2788 ft 117 kts 34°
2026-04-30 13:16 47.52947 12.42725 2691 ft 92 kts 86°
2026-04-30 13:16 47.52781 12.43585 2618 ft 84 kts 123°
2026-04-30 13:17 47.52090 12.44846 2263 ft 60 kts 132°
2026-04-30 13:17 47.51925 12.45118 2272 ft 28 kts 134°
2026-04-30 13:17 47.51798 12.45271 2273 ft 5 kts 229°
2026-04-30 13:18 47.51783 12.45240 2275 ft 4 kts 295°
2026-04-30 13:18 47.51889 12.45006 2270 ft 15 kts 304°
2026-04-30 13:18 47.51920 12.44938 2270 ft 0 kts 268°
2026-04-30 13:21 47.51920 12.44937 2270 ft 0 kts 279°
2026-04-30 13:21 47.51944 12.44933 2268 ft 8 kts 357°
2026-04-30 13:21 47.51997 12.44967 2270 ft 9 kts 20°
2026-04-30 13:22 47.52101 12.44824 2262 ft 16 kts 309°
2026-04-30 13:22 47.52212 12.44650 2250 ft 16 kts 315°
2026-04-30 13:22 47.52196 12.44669 2251 ft 31 kts 128°
2026-04-30 13:23 47.51932 12.45104 2273 ft 78 kts 131°
2026-04-30 13:23 47.51019 12.46398 2547 ft 92 kts 136°
2026-04-30 13:24 47.50340 12.47998 2806 ft 91 kts 114°
2026-04-30 13:24 47.49708 12.49763 3073 ft 107 kts 109°
2026-04-30 13:25 47.49080 12.51711 3385 ft 110 kts 103°
2026-04-30 13:25 47.48434 12.53681 4252 ft 96 kts 112°
2026-04-30 13:26 47.47446 12.56532 5245 ft 113 kts 109°
2026-04-30 13:26 47.46435 12.58335 6227 ft 124 kts 139°
2026-04-30 13:27 47.44984 12.60326 6545 ft 153 kts 143°
2026-04-30 13:28 47.42427 12.62937 7281 ft 153 kts 143°
2026-04-30 13:28 47.40750 12.64852 7693 ft 152 kts 130°
2026-04-30 13:28 47.39978 12.65934 7951 ft 154 kts 139°
2026-04-30 13:29 47.38319 12.67916 8339 ft 152 kts 138°
2026-04-30 13:29 47.36805 12.70269 8599 ft 158 kts 134°
2026-04-30 13:30 47.34646 12.73983 8687 ft 172 kts 121°
2026-04-30 13:31 47.33460 12.77008 7987 ft 157 kts 118°
2026-04-30 13:31 47.34431 12.80603 7028 ft 134 kts
2026-04-30 13:32 47.34945 12.78723 6452 ft 138 kts 193°
2026-04-30 13:32 47.33457 12.80682 5410 ft 139 kts 123°
2026-04-30 13:33 47.31599 12.80642 4633 ft 151 kts 207°
2026-04-30 13:33 47.29780 12.81450 4235 ft 148 kts 199°
2026-04-30 13:34 47.29094 12.80406 3938 ft 148 kts 236°
2026-04-30 13:34 47.28032 12.76236 3133 ft 125 kts 258°
2026-04-30 13:35 47.28224 12.75298 2996 ft 87 kts 352°
2026-04-30 13:35 47.28737 12.76575 2897 ft 0 kts 78°
2026-04-30 13:36 47.28932 12.77852 2792 ft 70 kts 69°
2026-04-30 13:37 47.29055 12.78522 2598 ft 65 kts 72°
2026-04-30 13:37 47.29182 12.79215 2537 ft 0 kts 81°